Knife Lake, Minnesota
Current Conditions -  °F | °C
As of 2:15 PM on Saturday 25 Oct 2014 (Local Time) from KJMR Reporting Station
Clear Clear  
Wind Chill: 61°   Ceiling: Unl
Heat Index: 61°   Visibility: 10mi
Dew Point: 27°   Wind: 17mph
Humidity: 27%   Direction: 310°NW
Pressure: 30.01"   Gusts: 26mph
Location:  45.9652°N, 93.2874°W
Report Text: KJMR 251915Z AUTO 31015G23KT 10SM CLR 16/M03 A3001 RMK AO2
Loading
Personal Weather Stations






























Interactive Weather Map
Tropical Storm Tracking
New forecast layout! Learn more

10-Day Weather Forecast

Advertisements
Track Severe Weather on mobile